Terminal Aerodrome Forecast
Issued by NWS

Home | Current Version | Previous Version | Text Only | Print | Product List | Glossary On
Versions: 1 2 3 4 5 6 7 8 9 10 11 12 13 14 15 16 17
000
FTUS44 KMAF 221120
TAFFST
TAF
KFST 221120Z 2212/2312 20007KT P6SM OVC250
     FM221600 14009G19KT P6SM SCT050 BKN250
     FM230200 16007KT P6SM OVC130=

USA.gov is the U.S. government's official web portal to all federal, state and local government web resources and services.